Time;durP1;ratioP1;P1;durP2;ratioP2;P2;SDS_P1;SDS_P2;PMS_P1;PMS_P2;Temp;Humidity;BMP_temperature;BMP_pressure;BME280_temperature;BME280_humidity;BME280_pressure;Samples;Min_cycle;Max_cycle;Signal;HPM_P1;HPM_P2
2021/01/05 00:02:11;;;;;;;16.63;11.60;;;2.40;99.90;;;;;;5020932;28;20217;-82
2021/01/05 00:04:36;;;;;;;18.00;11.37;;;2.40;99.90;;;;;;5004297;28;20603;-82
2021/01/05 00:07:03;;;;;;;16.43;10.80;;;2.40;99.90;;;;;;5021547;28;20226;-82
2021/01/05 00:09:28;;;;;;;16.90;10.20;;;2.40;99.90;;;;;;5005278;28;20607;-82
2021/01/05 00:11:58;;;;;;;16.30;10.87;;;2.40;99.90;;;;;;5022042;28;20188;-85
2021/01/05 00:14:24;;;;;;;17.53;10.47;;;2.30;99.90;;;;;;5004875;28;20307;-84
2021/01/05 00:16:50;;;;;;;17.30;10.23;;;2.30;99.90;;;;;;5021007;28;20221;-84
2021/01/05 00:19:15;;;;;;;15.83;10.60;;;2.40;99.90;;;;;;5004901;28;20183;-81
2021/01/05 00:21:41;;;;;;;17.93;11.20;;;2.30;99.90;;;;;;5004455;28;20210;-82
2021/01/05 00:24:07;;;;;;;16.40;9.93;;;2.40;99.90;;;;;;5020094;28;20288;-82
2021/01/05 00:26:36;;;;;;;14.70;9.97;;;2.40;99.90;;;;;;5018887;28;20209;-83
2021/01/05 00:29:02;;;;;;;16.43;10.50;;;2.40;99.90;;;;;;5004134;28;20270;-81
2021/01/05 00:31:28;;;;;;;17.07;10.60;;;2.40;99.90;;;;;;5020350;28;20187;-82
2021/01/05 00:33:53;;;;;;;17.70;10.63;;;2.40;99.90;;;;;;5003863;28;20195;-82
2021/01/05 00:36:19;;;;;;;17.57;10.73;;;2.40;99.90;;;;;;5003041;28;20218;-82
2021/01/05 00:38:44;;;;;;;15.80;10.37;;;2.40;99.90;;;;;;5019275;28;20207;-84
2021/01/05 00:41:10;;;;;;;17.10;10.83;;;2.40;99.90;;;;;;5003794;28;20180;-82
2021/01/05 00:43:35;;;;;;;15.33;10.13;;;2.40;99.90;;;;;;5003443;28;20178;-82
2021/01/05 00:46:01;;;;;;;15.83;9.93;;;2.40;99.90;;;;;;5003562;28;20203;-82
2021/01/05 00:48:26;;;;;;;17.90;10.80;;;2.40;99.90;;;;;;5020581;28;20183;-83
2021/01/05 00:50:52;;;;;;;16.50;10.33;;;2.40;99.90;;;;;;5002858;28;20687;-81
2021/01/05 00:53:17;;;;;;;16.93;10.43;;;2.40;99.90;;;;;;5019693;28;20655;-82
2021/01/05 00:55:43;;;;;;;15.80;10.37;;;2.40;99.90;;;;;;5002295;28;20196;-83
2021/01/05 00:58:09;;;;;;;18.03;10.97;;;2.40;99.90;;;;;;5018787;28;20585;-83
2021/01/05 01:00:34;;;;;;;17.13;10.10;;;2.30;99.90;;;;;;5018171;28;20255;-83
2021/01/05 01:03:00;;;;;;;16.67;9.93;;;2.40;99.90;;;;;;5001714;28;20682;-82
2021/01/05 01:05:25;;;;;;;16.73;9.87;;;2.40;99.90;;;;;;5002904;28;20262;-83
2021/01/05 01:07:51;;;;;;;16.33;10.37;;;2.40;99.90;;;;;;5019797;28;20270;-83
2021/01/05 01:10:17;;;;;;;17.03;10.50;;;2.40;99.90;;;;;;5003233;28;20172;-81
2021/01/05 01:12:42;;;;;;;19.13;11.03;;;2.30;99.90;;;;;;5031133;28;20187;-83
2021/01/05 01:15:08;;;;;;;18.93;11.63;;;2.40;99.90;;;;;;5022540;28;20547;-81
2021/01/05 01:17:34;;;;;;;17.23;10.87;;;2.40;99.90;;;;;;5022059;28;20218;-81
2021/01/05 01:19:59;;;;;;;17.77;11.60;;;2.30;99.90;;;;;;5035796;28;20226;-85
2021/01/05 01:22:25;;;;;;;18.40;11.47;;;2.30;99.90;;;;;;5007153;28;20180;-82
2021/01/05 01:24:51;;;;;;;19.70;12.67;;;2.30;99.90;;;;;;5019248;28;20185;-82
2021/01/05 01:27:16;;;;;;;18.83;10.43;;;2.30;99.90;;;;;;5019631;28;20209;-82
2021/01/05 01:29:42;;;;;;;19.40;11.40;;;2.30;99.90;;;;;;5019487;28;20182;-84
2021/01/05 01:32:07;;;;;;;20.53;11.83;;;2.40;99.90;;;;;;5019696;28;20187;-82
2021/01/05 01:34:33;;;;;;;17.20;11.00;;;2.30;99.90;;;;;;5019761;28;20179;-83
2021/01/05 01:37:06;;;;;;;17.93;11.07;;;2.30;99.90;;;;;;5003080;28;20214;-82
2021/01/05 01:39:33;;;;;;;19.63;12.03;;;2.40;99.90;;;;;;5019761;28;20665;-83
2021/01/05 01:42:01;;;;;;;19.40;10.93;;;2.40;99.90;;;;;;5018907;28;20182;-84
2021/01/05 01:44:29;;;;;;;19.87;12.73;;;2.40;99.90;;;;;;5018483;28;20182;-81
2021/01/05 01:47:00;;;;;;;20.20;12.20;;;2.40;99.90;;;;;;5018840;28;20202;-82
2021/01/05 01:49:25;;;;;;;20.57;12.33;;;2.40;99.90;;;;;;5019201;28;20189;-82
2021/01/05 01:51:51;;;;;;;21.53;12.53;;;2.40;99.90;;;;;;5019197;28;20181;-82
2021/01/05 01:54:22;;;;;;;22.43;13.10;;;2.40;99.90;;;;;;5019589;28;20231;-83
2021/01/05 01:57:18;;;;;;;22.57;13.10;;;2.40;99.90;;;;;;5018427;28;20199;-82
2021/01/05 02:00:14;;;;;;;23.47;13.43;;;2.30;99.90;;;;;;5035843;28;20601;-82
2021/01/05 02:03:05;;;;;;;24.33;13.37;;;2.30;99.90;;;;;;5052637;28;20182;-82
2021/01/05 02:05:34;;;;;;;23.17;12.90;;;2.30;99.90;;;;;;5018869;28;20194;-83
2021/01/05 02:08:13;;;;;;;23.97;13.57;;;2.40;99.90;;;;;;5019605;28;20171;-82
2021/01/05 02:10:54;;;;;;;22.37;13.00;;;2.40;99.90;;;;;;5020371;28;20182;-83
2021/01/05 02:13:28;;;;;;;26.00;13.50;;;2.30;99.90;;;;;;5019056;28;20245;-82
2021/01/05 02:16:17;;;;;;;23.83;12.90;;;2.30;99.90;;;;;;5019612;28;20681;-83
2021/01/05 02:18:44;;;;;;;24.13;12.73;;;2.30;99.90;;;;;;5021429;28;20257;-85
2021/01/05 02:21:25;;;;;;;19.60;11.13;;;2.30;99.90;;;;;;5018654;28;20240;-83
2021/01/05 02:24:17;;;;;;;21.43;12.03;;;2.30;99.90;;;;;;5020495;28;20205;-85
2021/01/05 02:26:47;;;;;;;20.50;11.27;;;2.30;99.90;;;;;;5036091;28;20215;-81
2021/01/05 02:29:16;;;;;;;21.40;11.77;;;2.30;99.90;;;;;;5018228;28;20183;-84
2021/01/05 02:31:45;;;;;;;18.20;11.00;;;2.30;99.90;;;;;;5018647;28;20193;-82
2021/01/05 02:34:32;;;;;;;18.60;11.63;;;2.40;99.90;;;;;;5018462;28;20642;-82
2021/01/05 02:36:59;;;;;;;21.33;11.77;;;2.40;99.90;;;;;;5051830;28;20210;-83
2021/01/05 02:39:50;;;;;;;21.03;11.13;;;2.30;99.90;;;;;;5017859;28;20183;-83
2021/01/05 02:42:25;;;;;;;16.53;10.67;;;2.40;99.90;;;;;;5051368;28;20172;-85
2021/01/05 02:45:03;;;;;;;17.40;10.70;;;2.40;99.90;;;;;;5018482;28;20178;-81
2021/01/05 02:47:52;;;;;;;19.17;11.03;;;2.40;99.90;;;;;;5035019;28;20198;-82
2021/01/05 02:50:53;;;;;;;18.37;11.00;;;2.40;99.90;;;;;;5034456;28;20179;-83
2021/01/05 02:53:56;;;;;;;18.13;10.67;;;2.30;99.90;;;;;;5018750;28;20190;-82
2021/01/05 02:56:47;;;;;;;18.30;9.47;;;2.40;99.90;;;;;;5055384;28;20217;-85
2021/01/05 02:59:22;;;;;;;17.13;10.73;;;2.40;99.90;;;;;;5025211;28;20256;-83
2021/01/05 03:02:25;;;;;;;20.07;10.53;;;2.40;99.90;;;;;;5055715;28;20637;-83
2021/01/05 03:04:50;;;;;;;18.23;10.63;;;2.30;99.90;;;;;;5055895;28;20189;-82
2021/01/05 03:07:18;;;;;;;17.87;9.80;;;2.30;99.90;;;;;;5022009;28;20198;-83
2021/01/05 03:09:52;;;;;;;21.23;11.37;;;2.30;99.90;;;;;;5022033;28;20183;-82
2021/01/05 03:12:42;;;;;;;19.60;10.40;;;2.40;99.90;;;;;;5022002;28;20548;-82
2021/01/05 03:15:23;;;;;;;17.67;10.57;;;2.40;99.90;;;;;;5023284;28;20189;-83
2021/01/05 03:17:50;;;;;;;18.27;10.50;;;2.40;99.90;;;;;;5040010;28;20190;-83
2021/01/05 03:20:26;;;;;;;20.90;10.63;;;2.40;99.90;;;;;;5022333;28;20279;-82
2021/01/05 03:23:00;;;;;;;19.53;10.47;;;2.30;99.90;;;;;;5022513;28;20182;-83
2021/01/05 03:25:28;;;;;;;19.70;11.03;;;2.30;99.90;;;;;;5021953;28;20631;-81
2021/01/05 03:28:01;;;;;;;20.23;10.67;;;2.30;99.90;;;;;;5021451;28;20646;-81
2021/01/05 03:30:26;;;;;;;17.97;11.00;;;2.40;99.90;;;;;;5021495;28;20412;-83
2021/01/05 03:32:52;;;;;;;18.37;10.53;;;2.40;99.90;;;;;;5055007;28;20396;-82
2021/01/05 03:35:17;;;;;;;19.87;11.53;;;2.40;99.90;;;;;;5021830;28;20189;-82
2021/01/05 03:37:43;;;;;;;16.93;10.23;;;2.40;99.90;;;;;;5021187;28;20739;-81
2021/01/05 03:40:09;;;;;;;18.07;10.40;;;2.40;99.90;;;;;;5021236;28;20668;-82
2021/01/05 03:42:36;;;;;;;19.13;10.70;;;2.40;99.90;;;;;;5021943;28;20182;-83
2021/01/05 03:45:03;;;;;;;20.40;11.00;;;2.40;99.90;;;;;;5022066;28;20189;-83
2021/01/05 03:47:28;;;;;;;18.80;10.87;;;2.40;99.90;;;;;;5021820;28;20207;-81
2021/01/05 03:49:54;;;;;;;17.93;10.83;;;2.40;99.90;;;;;;5022248;28;20179;-83
2021/01/05 03:52:23;;;;;;;19.30;10.93;;;2.40;99.90;;;;;;5004495;28;20216;-82
2021/01/05 03:54:50;;;;;;;22.10;11.77;;;2.30;99.90;;;;;;5021578;28;20190;-86
2021/01/05 03:57:15;;;;;;;21.57;11.10;;;2.40;99.90;;;;;;5020347;28;20206;-82
2021/01/05 03:59:41;;;;;;;19.43;11.43;;;2.40;99.90;;;;;;5020137;28;20183;-85
2021/01/05 04:02:06;;;;;;;18.67;10.53;;;2.40;99.90;;;;;;5003293;28;20710;-83
2021/01/05 04:04:32;;;;;;;18.20;10.47;;;2.40;99.90;;;;;;5019756;28;20646;-82
2021/01/05 04:06:58;;;;;;;19.53;10.97;;;2.40;99.90;;;;;;5017738;28;20575;-84
2021/01/05 04:09:23;;;;;;;19.57;11.10;;;2.40;99.90;;;;;;5022815;28;20198;-81
2021/01/05 04:11:49;;;;;;;19.57;10.00;;;2.40;99.90;;;;;;5021497;28;20183;-81
2021/01/05 04:14:14;;;;;;;19.23;10.60;;;2.40;99.90;;;;;;5020920;28;20199;-81
2021/01/05 04:16:40;;;;;;;17.73;10.07;;;2.30;99.90;;;;;;5020655;28;20681;-82
2021/01/05 04:19:05;;;;;;;19.80;10.67;;;2.40;99.90;;;;;;5020359;28;20646;-82
2021/01/05 04:21:31;;;;;;;19.30;10.47;;;2.40;99.90;;;;;;5004051;28;20259;-82
2021/01/05 04:23:56;;;;;;;20.30;11.40;;;2.40;99.90;;;;;;5021044;28;20179;-82
2021/01/05 04:26:22;;;;;;;22.20;11.13;;;2.40;99.90;;;;;;5003917;28;20205;-83
2021/01/05 04:28:47;;;;;;;19.47;11.17;;;2.40;99.90;;;;;;5020397;28;20190;-82
2021/01/05 04:31:13;;;;;;;20.23;11.03;;;2.40;99.90;;;;;;5004197;28;20186;-82
2021/01/05 04:33:39;;;;;;;19.37;10.30;;;2.40;99.90;;;;;;5020230;28;20256;-84
2021/01/05 04:36:05;;;;;;;18.40;10.27;;;2.40;99.90;;;;;;5019776;28;20199;-82
2021/01/05 04:38:30;;;;;;;18.63;9.93;;;2.40;99.90;;;;;;5020136;28;20212;-81
2021/01/05 04:40:56;;;;;;;19.90;10.83;;;2.40;99.90;;;;;;5019600;28;20170;-84
2021/01/05 04:43:30;;;;;;;21.17;11.13;;;2.40;99.90;;;;;;5020052;28;20185;-83
2021/01/05 04:46:14;;;;;;;20.00;10.03;;;2.40;99.90;;;;;;5052988;28;20589;-82
2021/01/05 04:48:57;;;;;;;18.87;10.30;;;2.40;99.90;;;;;;5020292;28;20228;-83
2021/01/05 04:51:35;;;;;;;19.30;9.57;;;2.40;99.90;;;;;;5052837;28;20175;-82
2021/01/05 04:54:10;;;;;;;17.77;9.80;;;2.40;99.90;;;;;;5036689;28;20282;-82
2021/01/05 04:57:04;;;;;;;19.60;10.63;;;2.40;99.90;;;;;;5020558;28;20201;-83
2021/01/05 04:59:36;;;;;;;17.87;10.30;;;2.40;99.90;;;;;;5036440;28;20334;-82
2021/01/05 05:02:01;;;;;;;22.07;10.80;;;2.40;99.90;;;;;;5021283;28;20171;-82
2021/01/05 05:04:42;;;;;;;19.97;10.27;;;2.40;99.90;;;;;;5022533;28;20183;-82
2021/01/05 05:07:25;;;;;;;18.60;9.97;;;2.40;99.90;;;;;;5021427;28;20211;-82
2021/01/05 05:09:59;;;;;;;17.23;10.67;;;2.40;99.90;;;;;;5020949;28;20175;-83
2021/01/05 05:12:39;;;;;;;20.20;10.10;;;2.40;99.90;;;;;;5021334;28;20167;-83
2021/01/05 05:15:50;;;;;;;18.40;9.20;;;2.40;99.90;;;;;;5020933;28;20205;-83
2021/01/05 05:18:31;;;;;;;20.50;11.00;;;2.40;99.90;;;;;;5036483;28;20223;-83
2021/01/05 05:21:13;;;;;;;20.90;10.73;;;2.40;99.90;;;;;;5052416;28;20225;-82
2021/01/05 05:23:45;;;;;;;19.93;10.53;;;2.40;99.90;;;;;;5019251;28;20174;-82
2021/01/05 05:26:39;;;;;;;19.80;10.40;;;2.40;99.90;;;;;;5052269;28;20190;-82
2021/01/05 05:29:20;;;;;;;22.27;11.20;;;2.40;99.90;;;;;;5021857;28;20287;-85
2021/01/05 05:31:47;;;;;;;20.63;10.97;;;2.40;99.90;;;;;;5019961;28;20178;-82
2021/01/05 05:34:21;;;;;;;19.43;10.10;;;2.40;99.90;;;;;;5019141;28;20179;-82
2021/01/05 05:37:05;;;;;;;19.77;10.63;;;2.40;99.90;;;;;;5019273;28;20187;-82
2021/01/05 05:39:55;;;;;;;19.70;9.87;;;2.40;99.90;;;;;;5052210;28;20213;-81
2021/01/05 05:42:26;;;;;;;24.30;11.23;;;2.50;99.90;;;;;;5051809;28;20170;-82
2021/01/05 05:45:01;;;;;;;20.30;10.30;;;2.40;99.90;;;;;;5052008;28;20167;-85
2021/01/05 05:47:36;;;;;;;20.43;11.27;;;2.50;99.90;;;;;;5019005;28;20197;-82
2021/01/05 05:50:16;;;;;;;19.83;10.73;;;2.40;99.90;;;;;;5019530;28;20174;-82
2021/01/05 05:52:54;;;;;;;21.87;10.63;;;2.50;99.90;;;;;;5018985;28;20180;-82
2021/01/05 05:55:44;;;;;;;22.90;11.73;;;2.50;99.90;;;;;;5020055;28;20433;-81
2021/01/05 05:58:12;;;;;;;22.70;11.47;;;2.50;99.90;;;;;;5020735;28;20203;-86
2021/01/05 06:00:39;;;;;;;20.10;11.17;;;2.40;99.90;;;;;;5018548;28;20178;-82
2021/01/05 06:03:05;;;;;;;26.97;12.43;;;2.40;99.90;;;;;;5018563;28;20186;-82
2021/01/05 06:05:35;;;;;;;20.97;11.33;;;2.50;99.90;;;;;;5018522;28;20213;-84
2021/01/05 06:08:02;;;;;;;23.70;11.27;;;2.50;99.90;;;;;;5018625;28;20185;-82
2021/01/05 06:10:27;;;;;;;21.37;11.13;;;2.50;99.90;;;;;;5019083;28;20174;-82
2021/01/05 06:12:53;;;;;;;19.13;10.57;;;2.50;99.90;;;;;;5018354;28;20273;-83
2021/01/05 06:15:19;;;;;;;22.77;10.93;;;2.50;99.90;;;;;;5018574;28;20178;-83
2021/01/05 06:17:45;;;;;;;21.87;11.53;;;2.50;99.90;;;;;;5018773;28;20293;-83
2021/01/05 06:20:11;;;;;;;19.00;11.00;;;2.50;99.90;;;;;;5018732;28;20688;-85
2021/01/05 06:22:36;;;;;;;18.47;10.27;;;2.50;99.90;;;;;;5019395;28;20646;-84
2021/01/05 06:25:04;;;;;;;18.13;10.53;;;2.50;99.90;;;;;;5018092;28;20171;-82
2021/01/05 06:27:29;;;;;;;18.73;10.40;;;2.50;99.90;;;;;;5018226;28;20293;-84
2021/01/05 06:29:55;;;;;;;19.87;10.57;;;2.50;99.90;;;;;;5019849;28;20202;-85
2021/01/05 06:32:20;;;;;;;22.13;10.60;;;2.50;99.90;;;;;;5022571;28;20179;-83
2021/01/05 06:34:46;;;;;;;21.10;10.80;;;2.50;99.90;;;;;;5023048;28;20187;-82
2021/01/05 06:37:11;;;;;;;19.53;10.53;;;2.50;99.90;;;;;;5022704;28;20191;-84
2021/01/05 06:39:37;;;;;;;21.73;11.23;;;2.50;99.90;;;;;;5022635;28;20530;-85
2021/01/05 06:42:03;;;;;;;22.10;11.10;;;2.50;99.90;;;;;;5022693;28;20213;-83
2021/01/05 06:44:28;;;;;;;20.67;10.73;;;2.40;99.90;;;;;;5022904;28;20174;-82
2021/01/05 06:46:54;;;;;;;21.00;10.17;;;2.50;99.90;;;;;;5026932;28;20539;-82
2021/01/05 06:49:19;;;;;;;22.87;11.33;;;2.40;99.90;;;;;;5030094;28;20190;-82
2021/01/05 06:51:45;;;;;;;20.00;10.30;;;2.40;99.90;;;;;;5027663;28;20698;-83
2021/01/05 06:54:10;;;;;;;21.50;11.27;;;2.40;99.90;;;;;;5024427;28;20530;-83
2021/01/05 06:57:04;;;;;;;20.40;10.67;;;2.50;99.90;;;;;;5027054;28;20294;-83
2021/01/05 06:59:30;;;;;;;22.43;10.67;;;2.50;99.90;;;;;;5032314;28;20201;-82
2021/01/05 07:02:00;;;;;;;20.20;10.87;;;2.50;99.90;;;;;;5031554;28;20216;-86
2021/01/05 07:04:26;;;;;;;21.27;10.87;;;2.50;99.90;;;;;;5014367;28;20206;-85
2021/01/05 07:06:51;;;;;;;20.40;10.90;;;2.50;99.90;;;;;;5024997;28;20190;-82
2021/01/05 07:09:18;;;;;;;19.27;11.10;;;2.60;99.90;;;;;;5023371;28;20260;-82
2021/01/05 07:11:44;;;;;;;19.50;10.63;;;2.50;99.90;;;;;;5023227;28;20186;-83
2021/01/05 07:14:10;;;;;;;20.33;11.17;;;2.50;99.90;;;;;;5022308;28;20186;-82
2021/01/05 07:16:36;;;;;;;22.60;10.77;;;2.50;99.90;;;;;;5021901;28;20737;-85
2021/01/05 07:19:01;;;;;;;19.33;11.67;;;2.50;99.90;;;;;;5022858;28;20198;-81
2021/01/05 07:21:27;;;;;;;21.07;11.47;;;2.50;99.90;;;;;;5021331;28;20662;-82
2021/01/05 07:23:53;;;;;;;23.20;11.27;;;2.50;99.90;;;;;;5005786;28;20191;-84
2021/01/05 07:26:18;;;;;;;16.97;10.03;;;2.50;99.90;;;;;;5005231;28;20199;-86
2021/01/05 07:28:44;;;;;;;18.93;10.80;;;2.50;99.90;;;;;;5021601;28;20556;-84
2021/01/05 07:31:09;;;;;;;17.30;10.93;;;2.50;99.90;;;;;;5021642;28;20212;-82
2021/01/05 07:33:36;;;;;;;20.40;10.90;;;2.50;99.90;;;;;;5021727;28;20217;-83
2021/01/05 07:36:02;;;;;;;20.30;11.20;;;2.40;99.90;;;;;;5021678;28;20213;-82
2021/01/05 07:38:28;;;;;;;17.93;10.63;;;2.50;99.90;;;;;;5021514;28;20261;-82
2021/01/05 07:40:53;;;;;;;21.43;10.93;;;2.50;99.90;;;;;;5020761;28;20201;-83
2021/01/05 07:43:19;;;;;;;18.70;10.70;;;2.50;99.90;;;;;;5021160;28;20547;-82
2021/01/05 07:45:44;;;;;;;19.83;11.10;;;2.50;99.90;;;;;;5004443;28;20198;-82
2021/01/05 07:48:10;;;;;;;20.13;11.20;;;2.50;99.90;;;;;;5021276;28;20653;-82
2021/01/05 07:50:36;;;;;;;20.73;10.83;;;2.60;99.90;;;;;;5020726;28;20702;-84
2021/01/05 07:53:02;;;;;;;19.27;10.27;;;2.50;99.90;;;;;;5021397;28;20187;-83
2021/01/05 07:55:28;;;;;;;22.43;10.87;;;2.50;99.90;;;;;;5021217;28;20190;-81
2021/01/05 07:57:54;;;;;;;19.23;10.90;;;2.50;99.90;;;;;;5020715;28;20199;-82
2021/01/05 08:00:21;;;;;;;19.37;10.67;;;2.50;99.90;;;;;;5020522;28;20198;-83
2021/01/05 08:02:47;;;;;;;19.60;10.97;;;2.50;99.90;;;;;;5019796;28;20190;-83
2021/01/05 08:05:19;;;;;;;18.47;11.17;;;2.50;99.90;;;;;;5020198;28;20183;-83
2021/01/05 08:07:45;;;;;;;24.57;12.57;;;2.60;99.90;;;;;;5020510;28;20203;-85
2021/01/05 08:10:19;;;;;;;18.67;10.80;;;2.60;99.90;;;;;;5020178;28;20278;-84
2021/01/05 08:12:45;;;;;;;17.87;11.17;;;2.60;99.90;;;;;;5023005;28;20249;-80
2021/01/05 08:15:19;;;;;;;18.77;10.47;;;2.60;99.90;;;;;;5017778;28;20276;-83
2021/01/05 08:17:45;;;;;;;19.90;11.00;;;2.70;99.90;;;;;;5004281;28;20705;-81
2021/01/05 08:20:11;;;;;;;20.03;11.23;;;2.60;99.90;;;;;;5000985;28;20175;-79
2021/01/05 08:22:36;;;;;;;20.23;11.40;;;2.60;99.90;;;;;;4986131;28;20206;-81
2021/01/05 08:25:02;;;;;;;21.10;11.90;;;2.60;99.90;;;;;;5017547;28;20187;-81
2021/01/05 08:27:28;;;;;;;20.33;11.30;;;2.60;99.90;;;;;;5001408;28;20202;-82
2021/01/05 08:29:53;;;;;;;19.23;11.30;;;2.60;99.90;;;;;;5017450;28;20244;-84
2021/01/05 08:32:19;;;;;;;19.70;12.07;;;2.60;99.90;;;;;;5022908;28;20182;-81
2021/01/05 08:34:45;;;;;;;22.23;11.90;;;2.60;99.90;;;;;;5042609;28;20236;-83
2021/01/05 08:37:11;;;;;;;20.93;12.30;;;2.60;99.90;;;;;;5026637;28;20265;-82
2021/01/05 08:39:36;;;;;;;21.87;13.20;;;2.50;99.90;;;;;;5024797;28;20179;-83
2021/01/05 08:42:02;;;;;;;21.27;12.23;;;2.60;99.90;;;;;;5025327;28;20182;-84
2021/01/05 08:44:27;;;;;;;22.73;12.50;;;2.60;99.90;;;;;;5023470;28;20189;-81
2021/01/05 08:46:59;;;;;;;23.70;13.60;;;2.60;99.90;;;;;;5024872;28;20217;-84
2021/01/05 08:49:24;;;;;;;21.67;12.67;;;2.60;99.90;;;;;;5012992;28;20190;-84
2021/01/05 08:51:52;;;;;;;22.60;12.43;;;2.70;99.90;;;;;;5021583;28;20179;-82
2021/01/05 08:54:18;;;;;;;22.13;12.27;;;2.70;99.90;;;;;;5020687;28;20180;-82
2021/01/05 08:56:43;;;;;;;22.40;12.53;;;2.60;99.90;;;;;;5003984;28;20229;-80
2021/01/05 08:59:09;;;;;;;20.90;12.27;;;2.70;99.90;;;;;;5035374;28;20212;-82
2021/01/05 09:01:34;;;;;;;23.33;13.00;;;2.60;99.90;;;;;;5023063;28;20578;-83
2021/01/05 09:04:00;;;;;;;24.70;13.87;;;2.60;99.90;;;;;;5026629;28;20209;-78
2021/01/05 09:06:25;;;;;;;23.67;13.53;;;2.60;99.90;;;;;;5037513;28;20219;-79
2021/01/05 09:08:51;;;;;;;25.17;13.70;;;2.60;99.90;;;;;;5038423;28;20187;-81
2021/01/05 09:11:27;;;;;;;24.50;14.27;;;2.60;99.90;;;;;;5035377;28;20187;-80
2021/01/05 09:13:52;;;;;;;22.97;13.50;;;2.60;99.90;;;;;;5035659;28;20181;-78
2021/01/05 09:16:20;;;;;;;20.77;12.93;;;2.70;99.90;;;;;;5017453;28;20380;-81
2021/01/05 09:18:46;;;;;;;30.07;14.27;;;2.70;99.90;;;;;;5019191;28;20227;-79
2021/01/05 09:21:12;;;;;;;23.07;12.80;;;2.70;99.90;;;;;;5029786;28;20627;-85
2021/01/05 09:23:39;;;;;;;27.07;13.83;;;2.80;99.90;;;;;;5007081;28;20229;-83
2021/01/05 09:26:04;;;;;;;22.97;13.43;;;2.80;99.90;;;;;;5016697;28;20640;-81
2021/01/05 09:28:30;;;;;;;29.20;16.10;;;2.70;99.90;;;;;;5026918;28;20187;-84
2021/01/05 09:30:55;;;;;;;26.40;14.53;;;2.70;99.90;;;;;;5008647;28;20202;-84
2021/01/05 09:33:21;;;;;;;24.93;13.97;;;2.70;99.90;;;;;;5008922;28;20193;-85
2021/01/05 09:35:47;;;;;;;23.47;13.93;;;2.70;99.90;;;;;;5008565;28;20195;-81
2021/01/05 09:38:13;;;;;;;25.97;14.23;;;2.70;99.90;;;;;;5027218;28;20202;-82
2021/01/05 09:40:39;;;;;;;24.77;14.07;;;2.70;99.90;;;;;;5026726;28;20536;-82
2021/01/05 09:43:05;;;;;;;25.27;13.83;;;2.80;99.90;;;;;;5010386;28;20182;-76
2021/01/05 09:45:31;;;;;;;24.23;13.63;;;2.80;99.90;;;;;;5000361;28;20170;-82
2021/01/05 09:48:04;;;;;;;25.97;14.77;;;2.70;99.90;;;;;;5024782;28;20189;-77
2021/01/05 09:50:30;;;;;;;25.90;14.53;;;2.80;99.90;;;;;;4998902;28;20190;-80
2021/01/05 09:52:55;;;;;;;30.00;16.67;;;2.70;99.90;;;;;;5015466;28;20180;-78
2021/01/05 09:55:21;;;;;;;26.50;14.93;;;2.80;99.90;;;;;;4997932;28;20179;-79
2021/01/05 09:57:47;;;;;;;28.53;15.80;;;2.90;99.90;;;;;;5000341;28;20211;-80
2021/01/05 10:00:13;;;;;;;28.17;15.57;;;2.90;99.90;;;;;;4995701;28;20538;-79
2021/01/05 10:02:39;;;;;;;27.03;14.13;;;2.80;99.90;;;;;;4994312;28;20266;-79
2021/01/05 10:05:05;;;;;;;25.43;14.10;;;2.80;99.90;;;;;;4977772;28;20613;-78
2021/01/05 10:07:30;;;;;;;26.47;14.30;;;2.80;99.90;;;;;;4978187;28;20211;-80
2021/01/05 10:09:56;;;;;;;25.73;14.10;;;2.90;99.90;;;;;;4994795;28;20188;-82
2021/01/05 10:12:21;;;;;;;24.40;13.87;;;2.90;99.90;;;;;;5010377;28;20556;-79
2021/01/05 10:14:47;;;;;;;26.33;13.50;;;2.90;99.90;;;;;;5011829;28;20553;-79
2021/01/05 10:17:13;;;;;;;25.73;13.63;;;2.80;99.90;;;;;;4996239;28;20215;-80
2021/01/05 10:19:38;;;;;;;27.83;14.67;;;2.80;99.90;;;;;;4997995;28;20187;-80
2021/01/05 10:22:04;;;;;;;29.07;13.13;;;2.80;99.90;;;;;;4996732;28;20187;-79
2021/01/05 10:24:30;;;;;;;26.00;14.70;;;2.80;99.90;;;;;;4980191;28;20187;-76
2021/01/05 10:26:55;;;;;;;24.23;13.67;;;2.80;99.90;;;;;;4997646;28;20210;-78
2021/01/05 10:29:22;;;;;;;31.47;15.10;;;2.80;99.90;;;;;;4998048;28;20195;-77
2021/01/05 10:31:47;;;;;;;24.50;13.63;;;2.90;99.90;;;;;;4996887;28;20179;-77
2021/01/05 10:34:19;;;;;;;25.80;14.70;;;2.90;99.90;;;;;;5010073;28;20183;-79
2021/01/05 10:36:44;;;;;;;25.60;13.60;;;2.90;99.90;;;;;;5020890;28;20206;-79
2021/01/05 10:39:13;;;;;;;25.37;13.33;;;3.00;99.90;;;;;;5017513;28;20205;-80
2021/01/05 10:41:40;;;;;;;26.03;14.10;;;3.00;99.90;;;;;;5017094;28;20336;-79
2021/01/05 10:44:06;;;;;;;20.83;12.90;;;3.00;99.90;;;;;;5018460;28;20273;-82
2021/01/05 10:46:31;;;;;;;23.10;13.87;;;3.00;99.90;;;;;;5019748;28;20643;-79
2021/01/05 10:48:57;;;;;;;27.63;14.93;;;3.10;99.90;;;;;;5018088;28;20187;-79
2021/01/05 10:51:22;;;;;;;23.67;14.13;;;3.00;99.90;;;;;;5017886;28;20663;-79
2021/01/05 10:53:48;;;;;;;25.90;14.10;;;3.10;99.90;;;;;;5019283;28;20599;-81
2021/01/05 10:56:15;;;;;;;22.70;13.93;;;3.00;99.90;;;;;;5019718;28;20228;-82
2021/01/05 10:58:40;;;;;;;26.50;14.30;;;3.10;99.90;;;;;;5020937;28;20242;-82
2021/01/05 11:01:06;;;;;;;25.67;14.37;;;3.10;99.90;;;;;;5017711;28;20179;-83
2021/01/05 11:03:32;;;;;;;23.93;12.97;;;3.10;99.90;;;;;;5021144;28;20193;-82
2021/01/05 11:05:57;;;;;;;23.57;13.73;;;3.10;99.90;;;;;;5036189;28;20196;-84
2021/01/05 11:08:23;;;;;;;22.93;13.03;;;3.00;99.90;;;;;;5019970;28;20179;-79
2021/01/05 11:10:48;;;;;;;23.00;13.03;;;3.00;99.90;;;;;;5010754;28;20183;-79
2021/01/05 11:13:14;;;;;;;19.57;10.70;;;3.00;99.90;;;;;;5033740;28;20202;-79
2021/01/05 11:15:40;;;;;;;23.87;12.80;;;3.00;99.90;;;;;;5033023;28;20207;-79
2021/01/05 11:18:05;;;;;;;22.93;11.97;;;3.00;99.90;;;;;;5033323;28;20203;-76
2021/01/05 11:20:31;;;;;;;24.63;14.03;;;3.00;99.90;;;;;;5017309;28;20179;-77
2021/01/05 11:22:56;;;;;;;22.07;12.57;;;3.00;99.90;;;;;;5017818;28;20178;-77
2021/01/05 11:25:22;;;;;;;22.03;12.70;;;3.00;99.90;;;;;;5014370;28;20176;-83
2021/01/05 11:27:48;;;;;;;22.07;12.73;;;3.00;99.90;;;;;;5017034;28;20214;-80
2021/01/05 11:30:22;;;;;;;21.77;12.40;;;3.00;99.90;;;;;;5027784;28;20175;-82
2021/01/05 11:32:48;;;;;;;20.03;11.57;;;3.10;99.90;;;;;;5037991;28;20273;-81
2021/01/05 11:35:14;;;;;;;19.40;11.63;;;3.10;99.90;;;;;;5035270;28;20226;-79
2021/01/05 11:37:39;;;;;;;20.83;11.70;;;3.00;99.90;;;;;;5017654;28;20202;-78
2021/01/05 11:40:05;;;;;;;20.63;12.47;;;3.10;99.90;;;;;;5015542;28;20194;-78
2021/01/05 11:42:31;;;;;;;22.93;11.60;;;3.10;99.90;;;;;;5015806;28;20171;-78
2021/01/05 11:44:57;;;;;;;19.63;11.83;;;3.10;99.90;;;;;;5016271;28;20248;-78
2021/01/05 11:47:24;;;;;;;22.33;13.00;;;3.00;99.90;;;;;;5034654;28;20393;-82
2021/01/05 11:49:49;;;;;;;19.47;12.43;;;3.00;99.90;;;;;;5040040;28;20171;-76
2021/01/05 11:52:15;;;;;;;20.60;11.80;;;3.00;99.90;;;;;;5024845;28;20175;-80
2021/01/05 11:54:40;;;;;;;20.70;11.87;;;3.00;99.90;;;;;;5021147;28;20662;-77
2021/01/05 11:57:06;;;;;;;19.63;12.73;;;3.00;99.90;;;;;;5018003;28;20298;-79
2021/01/05 11:59:32;;;;;;;24.83;12.73;;;3.00;99.90;;;;;;5018806;28;20214;-78
2021/01/05 12:01:59;;;;;;;22.37;13.17;;;3.00;99.90;;;;;;5021923;28;20194;-80
2021/01/05 12:04:25;;;;;;;20.93;12.53;;;3.00;99.90;;;;;;5025077;28;20225;-83
2021/01/05 12:06:51;;;;;;;22.73;12.93;;;3.00;99.90;;;;;;5018274;28;20292;-80
2021/01/05 12:09:17;;;;;;;20.80;12.60;;;3.10;99.90;;;;;;5002074;28;20717;-78
2021/01/05 12:11:44;;;;;;;19.77;11.97;;;3.20;99.90;;;;;;5036063;28;20183;-81
2021/01/05 12:14:10;;;;;;;19.00;11.57;;;3.20;99.90;;;;;;5030870;28;20234;-84
2021/01/05 12:16:37;;;;;;;17.93;11.30;;;3.10;99.90;;;;;;5034188;28;20214;-86
2021/01/05 12:19:05;;;;;;;17.43;10.47;;;3.10;99.90;;;;;;5005184;28;20194;-83
2021/01/05 12:21:32;;;;;;;16.40;10.77;;;3.10;99.90;;;;;;5012059;28;20189;-85
2021/01/05 12:23:58;;;;;;;18.13;10.43;;;3.10;99.90;;;;;;5022744;28;20228;-84
2021/01/05 12:26:24;;;;;;;17.20;10.27;;;3.10;99.90;;;;;;5020782;28;20218;-84
2021/01/05 12:28:49;;;;;;;14.63;9.60;;;3.00;99.90;;;;;;5020820;28;20685;-83
2021/01/05 12:31:15;;;;;;;17.50;10.50;;;3.10;99.90;;;;;;5019846;28;20229;-80
2021/01/05 12:33:40;;;;;;;18.07;10.47;;;3.10;99.90;;;;;;5037800;28;20188;-80
2021/01/05 12:36:06;;;;;;;15.37;9.87;;;3.10;99.90;;;;;;5036868;28;20198;-82
2021/01/05 12:38:31;;;;;;;17.27;9.90;;;3.10;99.90;;;;;;5020503;28;20207;-76
2021/01/05 12:40:57;;;;;;;16.80;10.37;;;3.10;99.90;;;;;;5019253;28;20175;-79
2021/01/05 12:43:23;;;;;;;18.67;10.83;;;3.10;99.90;;;;;;5036942;28;20646;-82
2021/01/05 12:45:48;;;;;;;16.10;9.77;;;3.20;99.90;;;;;;5036348;28;20206;-82
2021/01/05 12:48:14;;;;;;;16.67;10.53;;;3.20;99.90;;;;;;5035882;28;20183;-82